Adrian, Michigan
Current Conditions -  °F | °C
As of 10:53 AM on Tuesday 21 Oct 2014 (Local Time) from KADG Reporting Station
Overcast Overcast  
Wind Chill: 42°   Ceiling: 1500
Heat Index: 48°   Visibility: 10mi
Dew Point: 43°   Wind: 16mph
Humidity: 83%   Direction: 10°N
Pressure: 30.04"   Gusts: NA
Location:  41.9°N, 84.04°W
Report Text: KADG 211453Z AUTO 01014KT 10SM BKN015 OVC022 09/06 A3004 RMK AO2 SLP176 60000 T00890061 53014 $
Loading
Personal Weather Stations






























Interactive Weather Map
Tropical Storm Tracking
New forecast layout! Learn more

10-Day Weather Forecast

Advertisements
Track Severe Weather on mobile